Time;durP1;ratioP1;P1;durP2;ratioP2;P2;SDS_P1;SDS_P2;PMS_P1;PMS_P2;Temp;Humidity;BMP_temperature;BMP_pressure;BME280_temperature;BME280_humidity;BME280_pressure;Samples;Min_cycle;Max_cycle;Signal;HPM_P1;HPM_P2
2020/12/11 00:01:04;;;;;;;33.50;17.70;;;3.50;99.90;;;;;;5069093;28;20179;-85
2020/12/11 00:03:29;;;;;;;33.07;16.63;;;3.60;99.90;;;;;;5037634;28;20181;-85
2020/12/11 00:05:55;;;;;;;30.23;16.10;;;3.70;99.90;;;;;;5037959;28;20188;-85
2020/12/11 00:08:21;;;;;;;32.03;16.70;;;3.70;99.90;;;;;;5053540;28;20688;-85
2020/12/11 00:10:47;;;;;;;31.07;15.60;;;3.60;99.90;;;;;;5066630;28;20178;-85
2020/12/11 00:13:12;;;;;;;31.77;16.17;;;3.50;99.90;;;;;;5037572;28;20267;-85
2020/12/11 00:15:38;;;;;;;31.23;16.40;;;3.40;99.90;;;;;;5037197;28;20724;-87
2020/12/11 00:18:04;;;;;;;30.10;15.80;;;3.40;99.90;;;;;;5048412;28;20262;-85
2020/12/11 00:20:30;;;;;;;31.73;16.23;;;3.30;99.90;;;;;;5048801;28;20588;-84
2020/12/11 00:22:56;;;;;;;30.17;15.97;;;3.30;99.90;;;;;;5034587;28;20227;-84
2020/12/11 00:25:22;;;;;;;32.37;15.90;;;3.30;99.90;;;;;;5069431;28;20195;-83
2020/12/11 00:27:48;;;;;;;31.47;15.73;;;3.30;99.90;;;;;;5069372;28;20184;-85
2020/12/11 00:30:13;;;;;;;31.63;16.47;;;3.40;99.90;;;;;;5066045;28;20188;-86
2020/12/11 00:32:39;;;;;;;29.60;15.23;;;3.40;99.90;;;;;;5036457;28;20281;-86
2020/12/11 00:35:06;;;;;;;29.60;15.50;;;3.40;99.90;;;;;;5069730;28;20206;-85
2020/12/11 00:37:32;;;;;;;31.73;16.03;;;3.40;99.90;;;;;;5053610;28;20212;-86
2020/12/11 00:39:58;;;;;;;29.70;16.20;;;3.40;99.90;;;;;;5040805;28;20218;-85
2020/12/11 00:42:24;;;;;;;29.83;15.90;;;3.30;99.90;;;;;;5053479;28;20649;-86
2020/12/11 00:44:49;;;;;;;29.27;15.90;;;3.20;99.90;;;;;;5068749;28;20183;-85
2020/12/11 00:47:15;;;;;;;31.67;16.23;;;3.30;99.90;;;;;;5038363;28;20242;-86
2020/12/11 00:49:41;;;;;;;29.80;15.80;;;3.20;99.90;;;;;;5069565;28;20565;-85
2020/12/11 00:52:07;;;;;;;31.77;15.97;;;3.20;99.90;;;;;;5068881;28;20645;-85
2020/12/11 00:54:37;;;;;;;32.13;16.73;;;3.20;99.90;;;;;;5052072;28;20195;-85
2020/12/11 00:57:03;;;;;;;31.63;16.73;;;3.20;99.90;;;;;;5036287;28;20187;-84
2020/12/11 00:59:28;;;;;;;29.57;15.93;;;3.20;99.90;;;;;;5053933;28;20314;-85
2020/12/11 01:01:54;;;;;;;31.10;16.77;;;3.20;99.90;;;;;;5071795;28;20889;-86
2020/12/11 01:04:20;;;;;;;32.57;16.57;;;3.20;99.90;;;;;;5050850;28;20191;-86
2020/12/11 01:06:46;;;;;;;28.83;15.77;;;3.20;99.90;;;;;;5038399;28;20172;-86
2020/12/11 01:09:11;;;;;;;32.73;16.73;;;3.10;99.90;;;;;;5053116;28;20191;-88
2020/12/11 01:11:37;;;;;;;31.50;16.53;;;3.20;99.90;;;;;;5067688;28;20218;-86
2020/12/11 01:14:03;;;;;;;31.47;16.23;;;3.10;99.90;;;;;;5042407;28;20211;-86
2020/12/11 01:16:28;;;;;;;31.60;15.73;;;3.10;99.90;;;;;;5068424;28;20175;-86
2020/12/11 01:18:54;;;;;;;30.07;15.60;;;3.10;99.90;;;;;;5071373;28;20174;-87
2020/12/11 01:21:20;;;;;;;30.17;15.53;;;3.10;99.90;;;;;;5042988;28;20274;-85
2020/12/11 01:23:45;;;;;;;28.90;15.77;;;3.10;99.90;;;;;;5071332;28;20576;-85
2020/12/11 01:26:11;;;;;;;32.40;16.33;;;3.10;99.90;;;;;;5070025;28;20595;-85
2020/12/11 01:28:37;;;;;;;29.40;15.10;;;3.10;99.90;;;;;;5038305;28;20221;-85
2020/12/11 01:31:03;;;;;;;32.30;16.00;;;3.10;99.90;;;;;;5037920;28;20542;-86
2020/12/11 01:33:29;;;;;;;31.20;16.37;;;3.10;99.90;;;;;;5052103;28;20203;-86
2020/12/11 01:35:54;;;;;;;31.13;15.90;;;3.20;99.90;;;;;;5068513;28;20172;-87
2020/12/11 01:38:20;;;;;;;29.97;16.57;;;3.10;99.90;;;;;;5053157;28;20180;-84
2020/12/11 01:40:46;;;;;;;29.43;14.77;;;3.20;99.90;;;;;;5069509;28;20189;-85
2020/12/11 01:43:13;;;;;;;30.80;15.93;;;3.20;99.90;;;;;;5052041;28;20188;-86
2020/12/11 01:45:40;;;;;;;29.37;15.60;;;3.30;99.90;;;;;;5067817;28;20183;-85
2020/12/11 01:48:06;;;;;;;28.07;15.37;;;3.50;99.90;;;;;;5041271;28;20238;-85
2020/12/11 01:50:34;;;;;;;27.70;15.23;;;3.60;99.90;;;;;;5072725;28;20190;-86
2020/12/11 01:53:00;;;;;;;28.63;15.30;;;3.70;99.90;;;;;;5041905;28;20176;-85
2020/12/11 01:55:25;;;;;;;30.17;16.17;;;3.80;99.90;;;;;;5039362;28;20570;-85
2020/12/11 01:58:01;;;;;;;28.47;15.40;;;3.90;99.90;;;;;;5041039;28;20203;-85
2020/12/11 02:00:28;;;;;;;28.03;14.10;;;3.70;99.90;;;;;;5057617;28;20175;-86
2020/12/11 02:03:05;;;;;;;26.97;14.70;;;3.70;99.90;;;;;;5041042;28;20191;-85
2020/12/11 02:05:31;;;;;;;28.13;14.63;;;3.70;99.90;;;;;;5056671;28;20202;-84
2020/12/11 02:07:58;;;;;;;26.27;14.17;;;3.70;99.90;;;;;;5060033;28;20188;-87
2020/12/11 02:10:24;;;;;;;27.87;14.03;;;3.60;99.90;;;;;;5040058;28;20195;-86
2020/12/11 02:12:50;;;;;;;27.53;14.67;;;3.60;99.90;;;;;;5073341;28;20229;-86
2020/12/11 02:15:15;;;;;;;28.37;15.27;;;3.70;99.90;;;;;;5036340;28;20618;-86
2020/12/11 02:17:41;;;;;;;27.97;14.17;;;3.80;99.90;;;;;;5042310;28;20208;-87
2020/12/11 02:20:07;;;;;;;27.17;14.13;;;3.90;99.90;;;;;;5038066;28;20184;-85
2020/12/11 02:22:32;;;;;;;24.00;13.17;;;3.90;99.90;;;;;;5071848;28;20183;-86
2020/12/11 02:24:58;;;;;;;27.90;14.73;;;4.10;99.90;;;;;;5039710;28;20188;-85
2020/12/11 02:27:24;;;;;;;28.20;13.93;;;4.30;99.90;;;;;;5071355;28;20344;-85
2020/12/11 02:29:50;;;;;;;25.20;14.03;;;4.40;99.90;;;;;;5073524;28;20191;-84
2020/12/11 02:32:15;;;;;;;27.27;14.07;;;4.30;99.90;;;;;;5041608;28;20192;-86
2020/12/11 02:34:42;;;;;;;24.80;13.47;;;4.20;99.90;;;;;;5072402;28;20216;-86
2020/12/11 02:37:09;;;;;;;25.00;13.33;;;4.20;99.90;;;;;;5038023;28;20169;-86
2020/12/11 02:39:35;;;;;;;28.63;14.20;;;4.20;99.90;;;;;;5056056;28;20523;-86
2020/12/11 02:42:00;;;;;;;24.03;13.03;;;4.30;99.90;;;;;;5071794;28;20282;-85
2020/12/11 02:44:26;;;;;;;24.33;13.60;;;4.30;99.90;;;;;;5068367;28;20190;-86
2020/12/11 02:46:52;;;;;;;25.80;13.47;;;4.30;99.90;;;;;;5073521;28;20193;-88
2020/12/11 02:49:18;;;;;;;24.50;13.10;;;4.20;99.90;;;;;;5041099;28;20190;-86
2020/12/11 02:51:44;;;;;;;25.27;13.60;;;4.20;99.90;;;;;;5039619;28;20189;-85
2020/12/11 02:54:10;;;;;;;26.83;13.70;;;4.30;99.90;;;;;;5073325;28;20297;-86
2020/12/11 02:56:36;;;;;;;26.13;13.73;;;4.40;99.90;;;;;;5040362;28;20179;-86
2020/12/11 02:59:01;;;;;;;25.87;13.57;;;4.40;99.90;;;;;;5039082;28;20202;-85
2020/12/11 03:01:28;;;;;;;27.90;13.97;;;4.40;99.90;;;;;;5061009;28;20177;-85
2020/12/11 03:03:58;;;;;;;25.00;12.70;;;4.50;99.90;;;;;;5069058;28;20650;-85
2020/12/11 03:06:29;;;;;;;24.43;12.70;;;4.60;99.90;;;;;;5039835;28;20172;-86
2020/12/11 03:08:55;;;;;;;23.27;12.17;;;4.50;99.90;;;;;;5073200;28;20195;-85
2020/12/11 03:11:21;;;;;;;24.00;13.23;;;4.60;99.90;;;;;;5038945;28;20258;-85
2020/12/11 03:13:47;;;;;;;25.33;12.50;;;4.60;99.90;;;;;;5033135;28;20284;-86
2020/12/11 03:16:12;;;;;;;24.63;13.47;;;4.60;99.90;;;;;;5057159;28;20232;-85
2020/12/11 03:18:38;;;;;;;23.80;12.47;;;4.70;99.90;;;;;;5053062;28;20203;-85
2020/12/11 03:21:04;;;;;;;23.03;12.77;;;4.70;99.90;;;;;;5069186;28;20567;-86
2020/12/11 03:23:30;;;;;;;23.47;13.07;;;4.80;99.90;;;;;;5041114;28;20586;-87
2020/12/11 03:25:56;;;;;;;24.13;12.67;;;4.90;99.90;;;;;;5085783;28;20233;-86
2020/12/11 03:28:21;;;;;;;24.27;13.17;;;4.80;99.90;;;;;;5056138;28;20193;-85
2020/12/11 03:30:47;;;;;;;27.00;13.50;;;4.60;99.90;;;;;;5052213;28;20265;-86
2020/12/11 03:33:13;;;;;;;24.43;12.83;;;4.60;99.90;;;;;;5049320;28;20220;-85
2020/12/11 03:35:39;;;;;;;27.93;13.43;;;4.50;99.90;;;;;;5054599;28;20334;-86
2020/12/11 03:38:05;;;;;;;24.03;13.27;;;4.40;99.90;;;;;;5048058;28;20187;-86
2020/12/11 03:40:30;;;;;;;24.63;13.33;;;4.40;99.90;;;;;;5070589;28;20188;-87
2020/12/11 03:42:56;;;;;;;25.73;13.17;;;4.50;99.90;;;;;;5072016;28;20198;-86
2020/12/11 03:45:22;;;;;;;26.20;14.00;;;4.60;99.90;;;;;;5069607;28;20172;-86
2020/12/11 03:47:48;;;;;;;24.97;13.03;;;4.50;99.90;;;;;;5056635;28;20715;-86
2020/12/11 03:50:13;;;;;;;26.47;14.17;;;4.50;99.90;;;;;;5036075;28;20180;-86
2020/12/11 03:52:39;;;;;;;29.03;14.30;;;4.60;99.90;;;;;;5070180;28;20216;-86
2020/12/11 03:55:05;;;;;;;26.00;12.70;;;4.70;99.90;;;;;;5043829;28;20301;-86
2020/12/11 03:57:30;;;;;;;26.67;13.70;;;4.70;99.90;;;;;;5073063;28;20206;-86
2020/12/11 03:59:56;;;;;;;25.47;13.27;;;4.70;99.90;;;;;;5039604;28;20232;-86
2020/12/11 04:02:22;;;;;;;25.23;13.43;;;4.60;99.90;;;;;;5036534;28;20313;-86
2020/12/11 04:04:47;;;;;;;24.30;12.80;;;4.70;99.90;;;;;;5089058;28;20201;-86
2020/12/11 04:07:13;;;;;;;23.10;12.20;;;4.70;99.90;;;;;;5085038;28;20175;-86
2020/12/11 04:09:40;;;;;;;24.50;13.00;;;4.70;99.90;;;;;;5035211;28;20187;-86
2020/12/11 04:12:06;;;;;;;25.00;13.20;;;4.80;99.90;;;;;;5054015;28;20189;-86
2020/12/11 04:14:32;;;;;;;28.50;13.50;;;4.90;99.90;;;;;;5053120;28;20217;-86
2020/12/11 04:17:01;;;;;;;22.80;12.53;;;5.00;99.90;;;;;;5069573;28;20828;-86
2020/12/11 04:19:27;;;;;;;25.40;13.00;;;4.90;99.90;;;;;;5056873;28;20190;-87
2020/12/11 04:21:54;;;;;;;25.87;13.30;;;4.70;99.90;;;;;;5038328;28;20176;-86
2020/12/11 04:24:21;;;;;;;25.37;11.97;;;4.60;99.90;;;;;;5070881;28;20635;-85
2020/12/11 04:26:47;;;;;;;25.23;12.87;;;4.50;99.90;;;;;;5021550;28;20229;-86
2020/12/11 04:29:13;;;;;;;27.37;13.50;;;4.40;99.90;;;;;;5049391;28;20689;-88
2020/12/11 04:31:39;;;;;;;24.87;12.60;;;4.40;99.90;;;;;;5058923;28;20184;-87
2020/12/11 04:34:05;;;;;;;27.03;12.80;;;4.50;99.90;;;;;;5032173;28;20215;-86
2020/12/11 04:36:31;;;;;;;26.57;12.43;;;4.40;99.90;;;;;;5015193;28;20175;-89
2020/12/11 04:38:57;;;;;;;23.53;12.17;;;4.40;99.90;;;;;;5028453;28;20204;-88
2020/12/11 04:41:29;;;;;;;22.30;12.30;;;4.30;99.90;;;;;;5047302;28;20184;-87
2020/12/11 04:43:56;;;;;;;24.43;11.90;;;4.20;99.90;;;;;;5062201;28;20703;-87
2020/12/11 04:46:28;;;;;;;23.80;12.37;;;4.30;99.90;;;;;;5060383;28;20640;-86
2020/12/11 04:48:57;;;;;;;22.87;12.03;;;4.30;99.90;;;;;;5044823;28;20191;-85
2020/12/11 04:51:24;;;;;;;24.27;11.77;;;4.30;99.90;;;;;;5042415;28;20194;-87
2020/12/11 04:53:53;;;;;;;23.83;12.27;;;4.30;99.90;;;;;;5064912;28;20700;-87
2020/12/11 04:56:21;;;;;;;24.93;12.87;;;4.30;99.90;;;;;;5064530;28;20178;-85
2020/12/11 04:58:51;;;;;;;22.93;11.23;;;4.40;99.90;;;;;;5063270;28;20210;-85
2020/12/11 05:01:28;;;;;;;21.70;11.57;;;4.30;99.90;;;;;;5033248;28;20212;-86
2020/12/11 05:03:55;;;;;;;21.27;11.00;;;4.30;99.90;;;;;;5030804;28;20275;-85
2020/12/11 05:06:21;;;;;;;22.43;12.03;;;4.40;99.90;;;;;;5018875;28;20188;-85
2020/12/11 05:08:47;;;;;;;22.20;11.73;;;4.40;99.90;;;;;;5035190;28;20662;-86
2020/12/11 05:11:29;;;;;;;23.30;12.20;;;4.40;99.90;;;;;;5019358;28;20272;-86
2020/12/11 05:13:55;;;;;;;20.40;10.33;;;4.50;99.90;;;;;;5016288;28;20205;-86
2020/12/11 05:16:21;;;;;;;21.33;11.03;;;4.40;99.90;;;;;;5031453;28;20243;-86
2020/12/11 05:19:00;;;;;;;21.23;10.80;;;4.50;99.90;;;;;;5030663;28;20209;-86
2020/12/11 05:21:26;;;;;;;22.00;11.90;;;4.40;99.90;;;;;;5037185;28;20643;-86
2020/12/11 05:23:57;;;;;;;23.07;12.20;;;4.50;99.90;;;;;;5052113;28;20345;-86
2020/12/11 05:26:23;;;;;;;21.30;11.03;;;4.60;99.90;;;;;;5024984;28;20703;-86
2020/12/11 05:28:50;;;;;;;18.70;10.40;;;4.60;99.90;;;;;;5019648;28;20181;-88
2020/12/11 05:31:15;;;;;;;21.23;10.77;;;4.60;99.90;;;;;;5011072;28;20251;-86
2020/12/11 05:34:00;;;;;;;18.23;9.47;;;4.70;99.90;;;;;;5017724;28;20300;-86
2020/12/11 05:36:25;;;;;;;17.80;9.23;;;4.60;99.90;;;;;;5030710;28;20204;-88
2020/12/11 05:38:51;;;;;;;17.73;9.37;;;4.60;99.90;;;;;;5049217;28;20547;-85
2020/12/11 05:41:34;;;;;;;18.20;9.30;;;4.50;99.90;;;;;;5013920;28;20306;-89
2020/12/11 05:44:00;;;;;;;18.30;9.20;;;4.50;99.90;;;;;;5035694;28;20177;-85
2020/12/11 05:46:30;;;;;;;17.73;9.23;;;4.50;99.90;;;;;;5017531;28;20192;-88
2020/12/11 05:48:57;;;;;;;18.10;9.17;;;4.60;99.90;;;;;;5018665;28;20654;-87
2020/12/11 05:51:24;;;;;;;16.03;8.80;;;4.60;99.90;;;;;;5011576;28;20674;-86
2020/12/11 05:53:52;;;;;;;15.30;8.60;;;4.60;99.90;;;;;;5050235;28;20215;-86
2020/12/11 05:56:20;;;;;;;15.43;8.70;;;4.60;99.90;;;;;;5032903;28;20182;-86
2020/12/11 05:58:50;;;;;;;16.07;8.87;;;4.60;99.90;;;;;;5050805;28;20196;-87
2020/12/11 06:01:20;;;;;;;16.50;7.93;;;4.70;99.90;;;;;;5010591;28;20179;-86
2020/12/11 06:03:46;;;;;;;15.57;8.13;;;4.70;99.90;;;;;;5025976;28;20190;-86
2020/12/11 06:06:18;;;;;;;15.47;8.17;;;4.70;99.90;;;;;;5039744;28;20212;-87
2020/12/11 06:08:45;;;;;;;15.23;7.60;;;4.80;99.90;;;;;;5032245;28;20186;-86
2020/12/11 06:11:21;;;;;;;15.00;8.30;;;4.90;99.90;;;;;;5026033;28;20214;-86
2020/12/11 06:13:56;;;;;;;15.57;7.77;;;5.10;99.90;;;;;;5033726;28;20623;-87
2020/12/11 06:16:23;;;;;;;14.23;7.80;;;5.20;99.90;;;;;;5011094;28;20182;-89
2020/12/11 06:18:59;;;;;;;16.67;8.00;;;5.20;99.90;;;;;;5048018;28;20185;-89
2020/12/11 06:21:26;;;;;;;14.83;7.93;;;5.10;99.90;;;;;;5026274;28;20202;-87
2020/12/11 06:23:52;;;;;;;16.53;8.60;;;5.00;99.90;;;;;;5015747;28;20198;-86
2020/12/11 06:26:17;;;;;;;14.90;8.60;;;5.00;99.90;;;;;;5044241;28;20274;-87
2020/12/11 06:28:45;;;;;;;15.60;8.47;;;5.00;99.90;;;;;;5046627;28;20190;-86
2020/12/11 06:31:18;;;;;;;14.77;8.33;;;5.10;99.90;;;;;;5010684;28;21576;-88
2020/12/11 06:33:46;;;;;;;14.43;7.60;;;5.10;99.90;;;;;;5018274;28;20206;-88
2020/12/11 06:36:13;;;;;;;14.37;7.63;;;5.20;99.90;;;;;;5023680;28;20430;-87
2020/12/11 06:38:47;;;;;;;15.07;7.57;;;5.20;99.90;;;;;;5007259;28;20255;-86
2020/12/11 06:41:28;;;;;;;14.80;7.67;;;5.20;99.90;;;;;;5058058;28;20182;-87
2020/12/11 06:43:55;;;;;;;13.93;7.43;;;5.10;99.90;;;;;;5030041;28;20606;-87
2020/12/11 06:46:26;;;;;;;13.57;7.63;;;5.10;99.90;;;;;;5020293;28;20641;-87
2020/12/11 06:49:09;;;;;;;14.38;7.35;;;5.10;99.90;;;;;;5046546;28;20407;-86
2020/12/11 06:51:56;;;;;;;15.30;8.10;;;5.10;99.90;;;;;;5027946;28;20199;-88
2020/12/11 06:54:21;;;;;;;15.17;8.03;;;5.00;99.90;;;;;;5036372;28;20220;-85
2020/12/11 06:56:47;;;;;;;14.40;7.67;;;4.90;99.90;;;;;;5015388;28;20183;-85
2020/12/11 06:59:37;;;;;;;14.53;8.00;;;4.90;99.90;;;;;;4999892;28;20245;-87
2020/12/11 07:02:03;;;;;;;15.83;8.37;;;4.80;99.90;;;;;;5062369;28;20539;-86
2020/12/11 07:04:38;;;;;;;15.83;7.70;;;5.00;99.90;;;;;;5028426;28;20225;-86
2020/12/11 07:07:04;;;;;;;15.37;8.13;;;5.00;99.90;;;;;;5046549;28;20192;-86
2020/12/11 07:09:29;;;;;;;15.33;7.70;;;5.20;99.90;;;;;;5064727;28;20188;-86
2020/12/11 07:11:57;;;;;;;14.70;7.87;;;5.20;99.90;;;;;;5046104;28;20336;-87
2020/12/11 07:14:26;;;;;;;14.30;7.80;;;5.20;99.90;;;;;;5008813;28;20201;-87
2020/12/11 07:16:52;;;;;;;14.03;8.00;;;5.20;99.90;;;;;;5044929;28;20190;-85
2020/12/11 07:19:17;;;;;;;14.23;7.00;;;5.20;99.90;;;;;;5026371;28;20198;-86
2020/12/11 07:21:46;;;;;;;13.43;7.00;;;5.10;99.90;;;;;;5014956;28;20178;-86
2020/12/11 07:24:12;;;;;;;13.30;6.50;;;5.00;99.90;;;;;;5009081;28;20325;-86
2020/12/11 07:26:39;;;;;;;12.67;6.63;;;5.00;99.90;;;;;;5030443;28;20588;-86
2020/12/11 07:29:09;;;;;;;12.93;6.57;;;5.00;99.90;;;;;;5031692;28;20190;-86
2020/12/11 07:31:42;;;;;;;12.30;6.20;;;5.10;99.90;;;;;;5033987;28;20191;-87
2020/12/11 07:34:18;;;;;;;12.10;6.20;;;5.10;99.90;;;;;;5047897;28;20236;-87
2020/12/11 07:37:02;;;;;;;10.43;5.60;;;5.20;99.90;;;;;;5032970;28;20177;-87
2020/12/11 07:39:29;;;;;;;12.13;5.83;;;5.20;99.90;;;;;;5034786;28;20546;-86
2020/12/11 07:41:59;;;;;;;11.20;5.43;;;5.20;99.90;;;;;;5028588;28;20290;-86
2020/12/11 07:44:31;;;;;;;10.07;4.83;;;5.30;99.90;;;;;;5034107;28;20191;-87
2020/12/11 07:46:59;;;;;;;11.07;5.33;;;5.20;99.90;;;;;;5012580;28;20192;-86
2020/12/11 07:49:39;;;;;;;10.60;5.23;;;5.30;99.90;;;;;;5032416;28;20189;-85
2020/12/11 07:52:06;;;;;;;10.57;5.50;;;5.30;99.90;;;;;;5017358;28;20216;-86
2020/12/11 07:54:42;;;;;;;9.63;4.50;;;5.30;99.90;;;;;;5019912;28;20305;-85
2020/12/11 07:57:10;;;;;;;9.23;4.77;;;5.30;99.90;;;;;;5034522;28;20543;-86
2020/12/11 07:59:36;;;;;;;11.27;5.23;;;5.40;99.90;;;;;;5020058;28;20174;-85
2020/12/11 08:02:02;;;;;;;10.60;5.00;;;5.30;99.90;;;;;;5033847;28;20199;-86
2020/12/11 08:04:27;;;;;;;9.70;4.90;;;5.40;99.90;;;;;;5034813;28;20199;-86
2020/12/11 08:06:59;;;;;;;10.27;5.30;;;5.30;99.90;;;;;;5034910;28;20274;-86
2020/12/11 08:09:33;;;;;;;11.30;5.40;;;5.20;99.90;;;;;;5035578;28;20648;-86
2020/12/11 08:12:20;;;;;;;10.63;5.87;;;5.30;99.90;;;;;;5033695;28;20725;-88
2020/12/11 08:14:46;;;;;;;12.10;6.00;;;5.30;99.90;;;;;;5017244;28;20216;-85
2020/12/11 08:17:14;;;;;;;9.63;5.53;;;5.20;99.90;;;;;;5034685;28;20431;-88
2020/12/11 08:19:41;;;;;;;13.67;6.53;;;5.20;99.90;;;;;;5033551;28;20187;-87
2020/12/11 08:22:15;;;;;;;14.03;7.00;;;5.20;99.90;;;;;;5018246;28;20203;-86
2020/12/11 08:24:41;;;;;;;11.60;5.80;;;5.30;99.90;;;;;;5035175;28;20216;-87
2020/12/11 08:27:24;;;;;;;12.27;6.30;;;5.30;99.90;;;;;;5029465;28;20250;-87
2020/12/11 08:30:10;;;;;;;12.87;6.27;;;5.30;99.90;;;;;;5038556;28;20181;-86
2020/12/11 08:32:36;;;;;;;11.27;6.00;;;5.30;99.90;;;;;;5050390;28;20188;-86
2020/12/11 08:35:15;;;;;;;13.20;6.10;;;5.40;99.90;;;;;;5052981;28;20600;-87
2020/12/11 08:37:52;;;;;;;12.00;5.97;;;5.40;99.90;;;;;;5071130;28;20181;-88
2020/12/11 08:40:17;;;;;;;12.87;5.83;;;5.40;99.90;;;;;;5083404;28;20662;-87
2020/12/11 08:45:55;;;;;;;12.23;5.23;;;5.50;99.90;;;;;;5082642;28;20200;-86
2020/12/11 08:48:32;;;;;;;9.47;5.03;;;5.50;99.90;;;;;;5052879;28;20596;-85
2020/12/11 08:51:05;;;;;;;13.33;5.30;;;5.60;99.90;;;;;;5044697;28;20601;-86
2020/12/11 08:53:36;;;;;;;11.40;5.53;;;5.60;99.90;;;;;;5054211;28;20214;-85
2020/12/11 08:56:08;;;;;;;10.83;5.20;;;5.60;99.90;;;;;;5040932;28;20175;-84
2020/12/11 08:58:34;;;;;;;12.13;5.20;;;5.60;99.90;;;;;;5054206;28;20231;-85
2020/12/11 09:01:00;;;;;;;10.30;5.10;;;5.70;99.90;;;;;;5037999;28;20522;-85
2020/12/11 09:03:25;;;;;;;10.77;5.70;;;5.70;99.90;;;;;;5035185;28;20185;-85
2020/12/11 09:05:51;;;;;;;10.57;4.37;;;5.90;99.90;;;;;;5054943;28;20189;-86
2020/12/11 09:08:20;;;;;;;12.07;4.43;;;5.80;99.90;;;;;;5034801;28;20206;-84
2020/12/11 09:10:46;;;;;;;11.53;4.47;;;5.80;99.90;;;;;;5054250;28;20186;-85
2020/12/11 09:13:11;;;;;;;9.67;4.07;;;5.80;99.90;;;;;;5037798;28;20276;-88
2020/12/11 09:15:37;;;;;;;8.97;3.70;;;5.80;99.90;;;;;;5038341;28;20239;-86
2020/12/11 09:18:03;;;;;;;9.73;3.63;;;5.90;99.90;;;;;;5037479;28;20206;-85
2020/12/11 09:20:31;;;;;;;8.07;3.60;;;5.90;99.90;;;;;;5037324;28;20177;-86
2020/12/11 09:22:57;;;;;;;13.17;4.00;;;5.90;99.90;;;;;;5034904;28;20212;-86
2020/12/11 09:25:23;;;;;;;9.60;4.03;;;6.00;99.90;;;;;;5038333;28;20198;-85
2020/12/11 09:27:49;;;;;;;11.70;3.93;;;5.90;99.90;;;;;;5036067;28;20192;-87
2020/12/11 09:35:14;;;;;;;8.37;3.90;;;5.90;99.90;;;;;;5053836;28;20267;-86
2020/12/11 09:37:39;;;;;;;9.70;4.23;;;5.90;99.90;;;;;;5073691;28;20195;-86
2020/12/11 09:40:05;;;;;;;13.00;4.53;;;5.90;99.90;;;;;;5036965;28;20174;-85
2020/12/11 09:43:02;;;;;;;12.77;4.53;;;5.90;99.90;;;;;;5037666;28;20214;-85
2020/12/11 09:45:32;;;;;;;8.77;3.93;;;6.00;99.90;;;;;;5065036;28;20200;-85
2020/12/11 09:53:13;;;;;;;8.00;3.83;;;6.00;99.90;;;;;;5052292;28;20186;-86
2020/12/11 09:55:43;;;;;;;11.07;4.00;;;6.10;99.90;;;;;;5048805;28;20626;-87
2020/12/11 09:58:08;;;;;;;10.57;4.30;;;6.10;99.90;;;;;;5051788;28;20181;-85
2020/12/11 10:00:34;;;;;;;9.93;4.20;;;6.00;99.90;;;;;;5039771;28;20189;-85
2020/12/11 10:03:06;;;;;;;10.73;4.10;;;6.00;99.90;;;;;;5070170;28;20170;-88
2020/12/11 10:05:32;;;;;;;10.93;4.10;;;6.00;99.90;;;;;;5037222;28;20223;-85
2020/12/11 10:07:57;;;;;;;10.77;4.23;;;6.00;99.90;;;;;;5039374;28;20217;-86
2020/12/11 10:10:26;;;;;;;8.33;4.00;;;6.00;99.90;;;;;;5038860;28;20184;-86
2020/12/11 10:12:52;;;;;;;9.80;4.80;;;6.00;99.90;;;;;;5050880;28;20183;-85
2020/12/11 10:15:22;;;;;;;9.57;3.80;;;6.10;99.90;;;;;;5036746;28;20226;-84
2020/12/11 10:17:49;;;;;;;8.53;3.90;;;6.20;99.90;;;;;;5040272;28;20308;-85
2020/12/11 10:20:18;;;;;;;9.00;4.03;;;6.10;99.90;;;;;;5036660;28;20189;-85
2020/12/11 10:22:49;;;;;;;10.67;4.07;;;6.10;99.90;;;;;;5039863;28;20206;-85
2020/12/11 10:25:20;;;;;;;12.73;4.03;;;6.10;99.90;;;;;;5039013;28;20262;-84
2020/12/11 10:27:46;;;;;;;11.70;4.10;;;6.10;99.90;;;;;;5055237;28;20198;-86
2020/12/11 10:30:12;;;;;;;10.50;4.30;;;6.00;99.90;;;;;;5073723;28;20185;-85
2020/12/11 10:32:38;;;;;;;9.53;3.70;;;6.00;99.90;;;;;;5054851;28;20185;-87
2020/12/11 10:35:05;;;;;;;8.50;3.70;;;6.00;99.90;;;;;;5056725;28;20215;-87
2020/12/11 10:37:31;;;;;;;9.33;4.20;;;6.00;99.90;;;;;;5071813;28;20635;-86
2020/12/11 10:39:57;;;;;;;10.00;4.27;;;6.10;99.90;;;;;;5041403;28;20188;-86
2020/12/11 10:42:25;;;;;;;10.57;3.97;;;6.10;99.90;;;;;;5068652;28;20187;-86
2020/12/11 10:44:51;;;;;;;8.70;3.77;;;6.20;99.90;;;;;;5086903;28;20205;-86
2020/12/11 10:47:16;;;;;;;10.47;4.03;;;6.20;99.90;;;;;;5059498;28;20189;-85
2020/12/11 10:49:42;;;;;;;12.17;4.10;;;6.20;99.90;;;;;;5055495;28;20264;-86
2020/12/11 10:52:08;;;;;;;11.83;4.30;;;6.30;99.90;;;;;;5035378;28;20186;-85
2020/12/11 10:54:33;;;;;;;10.63;4.57;;;6.30;99.90;;;;;;5049964;28;20211;-85
2020/12/11 10:56:59;;;;;;;10.50;4.40;;;6.40;99.90;;;;;;5040854;28;20230;-87
2020/12/11 10:59:25;;;;;;;7.77;4.23;;;6.50;99.90;;;;;;5053102;28;20169;-87
2020/12/11 11:01:53;;;;;;;8.77;4.07;;;6.50;99.90;;;;;;5041004;28;20181;-87
2020/12/11 11:04:19;;;;;;;10.23;4.30;;;6.40;99.90;;;;;;5039374;28;20266;-87
2020/12/11 11:06:52;;;;;;;10.33;4.10;;;6.40;99.90;;;;;;5038724;28;20198;-86
2020/12/11 11:14:52;;;;;;;10.23;4.10;;;6.60;99.90;;;;;;5085808;28;20273;-88
2020/12/11 11:26:16;;;;;;;9.93;4.00;;;6.80;99.90;;;;;;5053062;28;20221;-88
2020/12/11 11:28:19;;;;;;;10.10;4.00;;;6.80;99.90;;;;;;5065900;28;20948;-86
2020/12/11 11:30:48;;;;;;;7.83;3.60;;;6.90;99.90;;;;;;5055661;28;20194;-90
2020/12/11 11:33:13;;;;;;;9.17;3.63;;;6.80;99.90;;;;;;5038927;28;20203;-87
2020/12/11 11:35:39;;;;;;;12.57;3.77;;;6.90;99.90;;;;;;5051559;28;20202;-87
2020/12/11 11:38:09;;;;;;;8.27;3.90;;;6.90;99.90;;;;;;5038567;28;20187;-86
2020/12/11 11:40:38;;;;;;;9.97;4.17;;;6.90;99.90;;;;;;5070971;28;20197;-87
2020/12/11 11:43:04;;;;;;;10.10;4.40;;;6.90;99.90;;;;;;5056024;28;20174;-86
2020/12/11 11:45:33;;;;;;;9.13;3.70;;;7.10;99.90;;;;;;5039355;28;20254;-87
2020/12/11 11:47:59;;;;;;;7.40;3.50;;;7.20;99.90;;;;;;5036515;28;20194;-89
2020/12/11 11:50:47;;;;;;;7.70;3.50;;;7.20;99.90;;;;;;5068507;28;20185;-87
2020/12/11 11:53:16;;;;;;;8.83;3.97;;;7.10;99.90;;;;;;5039149;28;20176;-90
2020/12/11 11:55:42;;;;;;;7.30;3.67;;;7.10;99.90;;;;;;5052954;28;20214;-87
2020/12/11 11:58:09;;;;;;;8.90;4.33;;;7.00;99.90;;;;;;5038112;28;20635;-87
2020/12/11 12:00:35;;;;;;;11.83;4.10;;;7.00;99.90;;;;;;5034476;28;20183;-87
2020/12/11 12:03:00;;;;;;;8.97;4.33;;;7.00;99.90;;;;;;5055644;28;20176;-87
2020/12/11 12:05:26;;;;;;;9.87;3.83;;;6.90;99.90;;;;;;5052377;28;20191;-88
2020/12/11 12:07:52;;;;;;;9.33;4.30;;;6.90;99.90;;;;;;5040054;28;20251;-87
2020/12/11 12:10:17;;;;;;;9.57;3.80;;;6.90;99.90;;;;;;5039502;28;20216;-87
2020/12/11 12:12:43;;;;;;;8.77;4.20;;;6.90;99.90;;;;;;5073777;28;20195;-87
2020/12/11 12:15:14;;;;;;;7.70;3.60;;;7.00;99.90;;;;;;5038874;28;20234;-87
2020/12/11 12:17:45;;;;;;;10.70;4.20;;;7.10;99.90;;;;;;5036250;28;20265;-87
2020/12/11 12:20:18;;;;;;;12.23;4.30;;;7.10;99.90;;;;;;5054438;28;20213;-88
2020/12/11 12:30:46;;;;;;;12.03;3.83;;;7.30;99.90;;;;;;5052050;28;20713;-87
2020/12/11 12:38:52;;;;;;;8.83;3.83;;;7.30;99.90;;;;;;5070747;28;20187;-87
2020/12/11 12:44:02;;;;;;;9.40;4.47;;;7.40;99.90;;;;;;5073191;28;20229;-86
2020/12/11 12:46:29;;;;;;;13.93;4.80;;;7.40;99.90;;;;;;5052797;28;20585;-89
2020/12/11 12:48:54;;;;;;;10.93;4.77;;;7.30;99.90;;;;;;5067111;28;20182;-86
2020/12/11 12:51:20;;;;;;;8.90;4.40;;;7.30;99.90;;;;;;5073916;28;20235;-86
2020/12/11 12:53:46;;;;;;;10.37;4.37;;;7.50;99.90;;;;;;5053493;28;20190;-85
2020/12/11 12:59:08;;;;;;;10.60;4.40;;;7.50;99.90;;;;;;5069894;28;20550;-86
2020/12/11 13:01:47;;;;;;;11.73;4.40;;;7.50;99.90;;;;;;5041484;28;20633;-85
2020/12/11 13:04:31;;;;;;;12.13;3.90;;;7.50;99.90;;;;;;5072342;28;20213;-85
2020/12/11 13:06:57;;;;;;;13.80;4.00;;;7.50;99.90;;;;;;5051825;28;20221;-86
2020/12/11 13:09:23;;;;;;;13.07;4.13;;;7.50;99.90;;;;;;5054785;28;20245;-86
2020/12/11 13:11:51;;;;;;;9.60;4.40;;;7.60;99.90;;;;;;5051169;28;20198;-85
2020/12/11 13:14:17;;;;;;;8.97;4.30;;;7.50;99.90;;;;;;5057125;28;20267;-85
2020/12/11 13:16:43;;;;;;;10.40;4.63;;;7.50;99.90;;;;;;5052616;28;20280;-86
2020/12/11 13:19:12;;;;;;;9.57;4.43;;;7.40;99.90;;;;;;5036499;28;20182;-86
2020/12/11 13:21:46;;;;;;;9.50;4.43;;;7.50;99.90;;;;;;5029757;28;20189;-85
2020/12/11 13:26:57;;;;;;;13.50;4.47;;;7.50;99.90;;;;;;5053893;28;20710;-85
2020/12/11 13:29:23;;;;;;;11.60;4.33;;;7.50;99.90;;;;;;5037923;28;20196;-85
2020/12/11 13:31:49;;;;;;;12.50;4.97;;;7.50;99.90;;;;;;5037423;28;20213;-85
2020/12/11 13:34:14;;;;;;;16.07;4.60;;;7.60;99.90;;;;;;5036409;28;20211;-85
2020/12/11 13:36:40;;;;;;;12.40;4.80;;;7.70;99.90;;;;;;5054374;28;20643;-85